Time;durP1;ratioP1;P1;durP2;ratioP2;P2;SDS_P1;SDS_P2;PMS_P1;PMS_P2;Temp;Humidity;BMP_temperature;BMP_pressure;BME280_temperature;BME280_humidity;BME280_pressure;Samples;Min_cycle;Max_cycle;Signal;HPM_P1;HPM_P2
2023/06/03 00:00:21;;;;;;;1.10;0.45;;;12.50;99.90;;;;;;5110085;28;20151;-70
2023/06/03 00:02:52;;;;;;;0.93;0.52;;;12.50;99.90;;;;;;5093403;28;20057;-71
2023/06/03 00:05:20;;;;;;;1.45;0.60;;;12.50;99.90;;;;;;5092682;28;20035;-71
2023/06/03 00:07:46;;;;;;;1.02;0.60;;;12.50;99.90;;;;;;5092544;28;20035;-71
2023/06/03 00:10:12;;;;;;;1.00;0.50;;;12.40;99.90;;;;;;5074883;28;20060;-71
2023/06/03 00:12:37;;;;;;;1.00;0.57;;;12.40;99.90;;;;;;5090609;28;20065;-71
2023/06/03 00:15:03;;;;;;;2.00;0.60;;;12.40;99.90;;;;;;5091993;28;20052;-70
2023/06/03 00:17:30;;;;;;;1.58;0.40;;;12.40;99.90;;;;;;5091849;28;20044;-71
2023/06/03 00:19:56;;;;;;;1.05;0.60;;;12.30;99.90;;;;;;5092302;28;20084;-70
2023/06/03 00:22:23;;;;;;;0.93;0.50;;;12.30;99.90;;;;;;5090090;28;20035;-70
2023/06/03 00:24:49;;;;;;;1.13;0.60;;;12.30;99.90;;;;;;5091383;28;20055;-70
2023/06/03 00:27:15;;;;;;;0.70;0.50;;;12.20;99.90;;;;;;5091356;28;20403;-70
2023/06/03 00:29:41;;;;;;;0.82;0.40;;;12.20;99.90;;;;;;5091476;28;20403;-71
2023/06/03 00:32:07;;;;;;;0.98;0.57;;;12.20;99.90;;;;;;5108776;28;20050;-71
2023/06/03 00:34:32;;;;;;;0.82;0.50;;;12.20;99.90;;;;;;5091088;28;20081;-70
2023/06/03 00:36:58;;;;;;;0.88;0.47;;;12.20;99.90;;;;;;5091783;28;20059;-71
2023/06/03 00:39:24;;;;;;;0.80;0.45;;;12.20;99.90;;;;;;5087207;28;20059;-70
2023/06/03 00:41:49;;;;;;;0.57;0.43;;;12.20;99.90;;;;;;5086885;28;20131;-71
2023/06/03 00:44:15;;;;;;;0.65;0.50;;;12.10;99.90;;;;;;5121729;27;20074;-70
2023/06/03 00:46:41;;;;;;;0.82;0.40;;;12.10;99.90;;;;;;5088281;28;20103;-71
2023/06/03 00:49:07;;;;;;;1.42;0.60;;;12.10;99.90;;;;;;5122642;27;20122;-71
2023/06/03 00:51:33;;;;;;;1.23;0.60;;;12.00;99.90;;;;;;5121494;27;20115;-71
2023/06/03 00:53:59;;;;;;;0.90;0.60;;;12.00;99.90;;;;;;5121990;27;20542;-71
2023/06/03 00:56:26;;;;;;;1.63;0.65;;;11.90;99.90;;;;;;5069452;28;20506;-70
2023/06/03 00:58:52;;;;;;;1.13;0.60;;;11.90;99.90;;;;;;5090148;28;20901;-70
2023/06/03 01:01:19;;;;;;;1.10;0.52;;;11.90;99.90;;;;;;5103894;28;20048;-70
2023/06/03 01:03:47;;;;;;;0.80;0.50;;;11.80;99.90;;;;;;5087332;28;20363;-70
2023/06/03 01:06:24;;;;;;;1.10;0.60;;;11.80;99.90;;;;;;5069535;28;20040;-71
2023/06/03 01:09:06;;;;;;;0.80;0.65;;;11.70;99.90;;;;;;5102919;28;20440;-70
2023/06/03 01:11:59;;;;;;;1.52;0.68;;;11.60;99.90;;;;;;5087785;28;20806;-71
2023/06/03 01:14:49;;;;;;;0.60;0.40;;;11.60;99.90;;;;;;5086642;28;20036;-71
2023/06/03 01:17:16;;;;;;;0.57;0.47;;;11.60;99.90;;;;;;5122634;27;20097;-71
2023/06/03 01:19:48;;;;;;;1.45;0.65;;;11.60;99.90;;;;;;5122653;27;20487;-70
2023/06/03 01:22:16;;;;;;;1.33;0.55;;;11.60;99.90;;;;;;5105682;28;20097;-71
2023/06/03 01:24:46;;;;;;;0.68;0.40;;;11.50;99.90;;;;;;5088514;28;20062;-70
2023/06/03 01:27:12;;;;;;;0.63;0.45;;;11.60;99.90;;;;;;5103072;28;20046;-69
2023/06/03 01:29:38;;;;;;;;;;;11.50;99.90;;;;;;5072281;28;20098;-70
2023/06/03 01:32:04;;;;;;;1.92;0.60;;;11.50;99.90;;;;;;5105387;28;19951;-70
2023/06/03 01:34:31;;;;;;;0.75;0.55;;;11.50;99.90;;;;;;5105515;28;20140;-69
2023/06/03 01:36:57;;;;;;;0.60;0.50;;;11.40;99.90;;;;;;5069386;28;20067;-70
2023/06/03 01:39:24;;;;;;;0.90;0.50;;;11.50;99.90;;;;;;5105507;28;20052;-69
2023/06/03 01:41:51;;;;;;;0.60;0.40;;;11.40;99.90;;;;;;5087232;28;20044;-69
2023/06/03 01:44:17;;;;;;;1.00;0.50;;;11.40;99.90;;;;;;5088617;28;20044;-70
2023/06/03 01:46:43;;;;;;;0.80;0.50;;;11.30;99.90;;;;;;5105170;28;20043;-70
2023/06/03 01:49:10;;;;;;;0.50;0.50;;;11.30;99.90;;;;;;5089719;28;20036;-70
2023/06/03 01:51:35;;;;;;;0.50;0.40;;;11.20;99.90;;;;;;5122235;28;20048;-71
2023/06/03 01:54:02;;;;;;;1.17;0.50;;;11.10;99.90;;;;;;5122832;28;20040;-70
2023/06/03 01:56:28;;;;;;;1.42;0.50;;;11.10;99.90;;;;;;5123595;27;20122;-70
2023/06/03 01:58:53;;;;;;;0.90;0.60;;;11.10;99.90;;;;;;5126338;27;20131;-70
2023/06/03 02:01:19;;;;;;;0.80;0.40;;;11.10;99.90;;;;;;5126065;27;20035;-70
2023/06/03 02:03:45;;;;;;;1.10;0.50;;;11.10;99.90;;;;;;5075327;28;20040;-70
2023/06/03 02:06:13;;;;;;;0.95;0.40;;;11.10;99.90;;;;;;5126117;27;20039;-71
2023/06/03 02:08:39;;;;;;;1.60;0.45;;;11.10;99.90;;;;;;5092179;28;20054;-70
2023/06/03 02:11:05;;;;;;;0.60;0.43;;;11.00;99.90;;;;;;5126158;27;20040;-70
2023/06/03 02:13:30;;;;;;;0.82;0.50;;;11.00;99.90;;;;;;5126127;27;20051;-70
2023/06/03 02:15:56;;;;;;;0.60;0.40;;;11.00;99.90;;;;;;5108647;28;20154;-69
2023/06/03 02:18:23;;;;;;;0.85;0.43;;;11.00;99.90;;;;;;5075391;28;20044;-70
2023/06/03 02:20:48;;;;;;;;;;;10.90;99.90;;;;;;5109260;28;20104;-70
2023/06/03 02:23:14;;;;;;;2.33;0.57;;;10.90;99.90;;;;;;5091688;28;19920;-70
2023/06/03 02:25:40;;;;;;;1.02;0.40;;;10.90;1.00;;;;;;5108679;28;20036;-69
2023/06/03 02:28:07;;;;;;;0.98;0.60;;;10.80;1.00;;;;;;5091614;28;20036;-69
2023/06/03 02:30:33;;;;;;;0.93;0.68;;;10.80;1.00;;;;;;5091655;28;20082;-70
2023/06/03 02:32:59;;;;;;;1.70;0.75;;;10.70;1.00;;;;;;5125618;27;20085;-70
2023/06/03 02:35:25;;;;;;;1.17;0.80;;;10.70;1.00;;;;;;5125706;27;20585;-70
2023/06/03 02:37:50;;;;;;;1.42;0.73;;;10.60;1.00;;;;;;5108958;28;20044;-70
2023/06/03 02:40:16;;;;;;;0.93;0.60;;;10.60;1.00;;;;;;5091107;28;20744;-69
2023/06/03 02:42:42;;;;;;;0.80;0.63;;;10.60;1.00;;;;;;5091562;28;20078;-70
2023/06/03 02:45:08;;;;;;;0.70;0.60;;;10.60;1.00;;;;;;5091585;28;20085;-69
2023/06/03 02:47:34;;;;;;;0.52;0.40;;;10.60;20.20;;;;;;5122749;27;20032;-69
2023/06/03 02:50:00;;;;;;;0.70;0.50;;;10.60;18.50;;;;;;5125164;27;20051;-70
2023/06/03 02:52:25;;;;;;;1.20;0.80;;;10.50;30.00;;;;;;5092381;28;20044;-69
2023/06/03 02:54:51;;;;;;;0.90;0.50;;;10.50;26.10;;;;;;5124987;27;20024;-70
2023/06/03 02:57:19;;;;;;;1.30;0.60;;;10.50;64.00;;;;;;5108174;28;20072;-70
2023/06/03 02:59:46;;;;;;;1.95;0.63;;;10.50;87.70;;;;;;5090755;28;20040;-69
2023/06/03 03:02:12;;;;;;;0.85;0.55;;;10.40;82.40;;;;;;5073960;28;20040;-69
2023/06/03 03:04:38;;;;;;;2.17;0.63;;;10.40;99.90;;;;;;5072992;28;20043;-70
2023/06/03 03:07:07;;;;;;;0.80;0.60;;;10.40;99.90;;;;;;5072917;28;20050;-70
2023/06/03 03:09:33;;;;;;;1.10;0.60;;;10.40;99.90;;;;;;5088538;28;20510;-69
2023/06/03 03:11:59;;;;;;;0.77;0.50;;;10.40;99.90;;;;;;5074040;28;20066;-69
2023/06/03 03:14:25;;;;;;;0.68;0.52;;;10.40;99.90;;;;;;5090720;28;20115;-69
2023/06/03 03:16:51;;;;;;;0.95;0.50;;;10.30;99.90;;;;;;5124452;27;20040;-69
2023/06/03 03:19:17;;;;;;;0.80;0.40;;;10.30;99.90;;;;;;5090166;28;20051;-69
2023/06/03 03:21:43;;;;;;;1.05;0.65;;;10.20;99.90;;;;;;5124002;27;20043;-70
2023/06/03 03:24:08;;;;;;;1.00;0.52;;;10.20;99.90;;;;;;5106250;28;20035;-70
2023/06/03 03:26:34;;;;;;;0.80;0.50;;;10.20;99.90;;;;;;5122733;27;20395;-70
2023/06/03 03:29:00;;;;;;;0.63;0.40;;;10.20;99.90;;;;;;5106731;28;20044;-69
2023/06/03 03:31:26;;;;;;;0.65;0.40;;;10.20;99.90;;;;;;5124271;27;20126;-69
2023/06/03 03:33:52;;;;;;;1.08;0.70;;;10.20;99.90;;;;;;5124528;27;20052;-70
2023/06/03 03:36:26;;;;;;;1.13;0.50;;;10.20;99.90;;;;;;5090092;28;20535;-69
2023/06/03 03:39:04;;;;;;;0.95;0.50;;;10.10;99.90;;;;;;5107750;28;20039;-70
2023/06/03 03:41:30;;;;;;;0.70;0.55;;;10.10;99.90;;;;;;5126399;27;20067;-70
2023/06/03 03:43:56;;;;;;;0.70;0.65;;;10.10;99.90;;;;;;5093414;28;20386;-70
2023/06/03 03:46:22;;;;;;;1.58;0.55;;;10.10;99.90;;;;;;5110372;28;20069;-71
2023/06/03 03:48:47;;;;;;;0.57;0.50;;;10.10;99.90;;;;;;5093268;28;20064;-70
2023/06/03 03:51:13;;;;;;;0.30;0.30;;;10.10;99.90;;;;;;5092987;28;20036;-70
2023/06/03 03:53:44;;;;;;;1.27;0.60;;;10.10;99.90;;;;;;5092978;28;20686;-70
2023/06/03 03:56:16;;;;;;;1.35;0.70;;;10.10;99.90;;;;;;5091074;28;20070;-70
2023/06/03 03:58:43;;;;;;;1.02;0.65;;;10.20;99.90;;;;;;5093045;28;20046;-70
2023/06/03 04:01:12;;;;;;;0.77;0.60;;;10.20;99.90;;;;;;5092932;28;20047;-71
2023/06/03 04:03:41;;;;;;;0.77;0.60;;;10.20;99.90;;;;;;5090918;28;20039;-70
2023/06/03 04:06:08;;;;;;;0.60;0.50;;;10.20;99.90;;;;;;5093056;28;20406;-70
2023/06/03 04:08:48;;;;;;;0.80;0.65;;;10.20;99.90;;;;;;5093037;28;20113;-70
2023/06/03 04:11:22;;;;;;;0.60;0.47;;;10.20;99.90;;;;;;5092852;28;20031;-70
2023/06/03 04:13:49;;;;;;;0.98;0.50;;;10.20;99.90;;;;;;5091043;28;20047;-70
2023/06/03 04:16:36;;;;;;;0.95;0.50;;;10.20;99.90;;;;;;5092362;28;20047;-70
2023/06/03 04:19:03;;;;;;;0.90;0.60;;;10.20;99.90;;;;;;5092055;28;20436;-70
2023/06/03 04:21:30;;;;;;;0.75;0.40;;;10.20;99.90;;;;;;5109470;28;20039;-70
2023/06/03 04:23:56;;;;;;;0.52;0.40;;;10.20;99.90;;;;;;5092542;28;20039;-70
2023/06/03 04:26:22;;;;;;;1.27;0.55;;;10.30;99.90;;;;;;5093011;28;20039;-70
2023/06/03 04:28:47;;;;;;;1.67;0.50;;;10.30;99.90;;;;;;5091960;28;20050;-70
2023/06/03 04:31:13;;;;;;;1.27;0.55;;;10.40;99.90;;;;;;5092730;28;20043;-70
2023/06/03 04:33:39;;;;;;;1.00;0.45;;;10.40;99.90;;;;;;5092467;28;20473;-70
2023/06/03 04:36:05;;;;;;;0.60;0.50;;;10.40;99.90;;;;;;5092470;28;20044;-70
2023/06/03 04:38:31;;;;;;;1.40;0.63;;;10.50;99.90;;;;;;5090465;28;20398;-70
2023/06/03 04:40:56;;;;;;;0.38;0.35;;;10.60;99.90;;;;;;5087609;28;20048;-70
2023/06/03 04:43:22;;;;;;;0.85;0.50;;;10.60;99.90;;;;;;5089395;28;20394;-70
2023/06/03 04:45:54;;;;;;;1.27;0.60;;;10.60;99.90;;;;;;5088244;28;20032;-70
2023/06/03 04:48:22;;;;;;;0.70;0.40;;;10.70;99.90;;;;;;5102373;28;20148;-71
2023/06/03 04:50:49;;;;;;;0.60;0.50;;;10.80;99.90;;;;;;5087966;28;20048;-72
2023/06/03 04:53:15;;;;;;;0.43;0.40;;;10.80;99.90;;;;;;5102533;28;20039;-71
2023/06/03 04:55:44;;;;;;;0.80;0.50;;;10.80;99.90;;;;;;5122670;27;20483;-71
2023/06/03 04:58:11;;;;;;;0.63;0.50;;;10.90;99.90;;;;;;5122873;27;20048;-71
2023/06/03 05:00:37;;;;;;;0.47;0.47;;;11.00;99.90;;;;;;5087644;28;20470;-71
2023/06/03 05:03:08;;;;;;;0.82;0.60;;;11.00;99.90;;;;;;5083773;28;20040;-71
2023/06/03 05:05:35;;;;;;;0.38;0.38;;;11.10;99.90;;;;;;5070742;28;20471;-71
2023/06/03 05:08:01;;;;;;;0.85;0.47;;;11.20;99.90;;;;;;5088086;28;20044;-71
2023/06/03 05:10:27;;;;;;;0.43;0.40;;;11.20;99.90;;;;;;5071118;28;20438;-71
2023/06/03 05:12:53;;;;;;;0.52;0.50;;;11.30;98.00;;;;;;5121604;27;20484;-71
2023/06/03 05:15:19;;;;;;;1.45;0.60;;;11.30;99.90;;;;;;5071352;28;20036;-71
2023/06/03 05:17:45;;;;;;;1.20;0.65;;;11.30;98.30;;;;;;5054134;28;20041;-71
2023/06/03 05:20:11;;;;;;;0.65;0.50;;;11.30;99.90;;;;;;5071239;28;20050;-71
2023/06/03 05:22:37;;;;;;;1.00;0.50;;;11.30;99.90;;;;;;5071453;28;20031;-71
2023/06/03 05:25:04;;;;;;;1.08;0.52;;;11.40;95.60;;;;;;5088466;28;20063;-71
2023/06/03 05:27:30;;;;;;;0.57;0.40;;;11.40;91.70;;;;;;5087108;28;20087;-70
2023/06/03 05:29:56;;;;;;;0.82;0.60;;;11.50;98.80;;;;;;5087034;28;20094;-71
2023/06/03 05:32:22;;;;;;;1.05;0.50;;;11.50;99.90;;;;;;5089930;28;20044;-71
2023/06/03 05:34:48;;;;;;;0.47;0.30;;;11.60;93.20;;;;;;5087215;28;20047;-70
2023/06/03 05:37:13;;;;;;;1.08;0.43;;;11.70;93.20;;;;;;5091081;28;20047;-70
2023/06/03 05:39:39;;;;;;;0.50;0.40;;;11.80;94.60;;;;;;5090901;28;20044;-71
2023/06/03 05:42:05;;;;;;;0.80;0.52;;;11.90;91.40;;;;;;5091469;28;20055;-71
2023/06/03 05:44:31;;;;;;;1.80;0.40;;;12.20;47.10;;;;;;5092683;28;20470;-71
2023/06/03 05:46:57;;;;;;;0.45;0.38;;;12.40;33.60;;;;;;5124434;27;20064;-69
2023/06/03 05:49:22;;;;;;;1.10;0.52;;;12.80;1.00;;;;;;5124551;27;20051;-69
2023/06/03 05:51:48;;;;;;;1.30;0.60;;;13.30;1.00;;;;;;5090521;28;20122;-69
2023/06/03 05:54:13;;;;;;;0.75;0.50;;;13.50;99.90;;;;;;5123560;27;20043;-69
2023/06/03 05:56:39;;;;;;;1.20;0.60;;;13.70;99.90;;;;;;5108668;28;20106;-70
2023/06/03 05:59:05;;;;;;;1.30;0.75;;;13.90;99.90;;;;;;5091060;28;20446;-69
2023/06/03 06:01:33;;;;;;;0.55;0.50;;;14.10;99.90;;;;;;5088845;28;20117;-69
2023/06/03 06:03:59;;;;;;;1.02;0.50;;;14.50;99.90;;;;;;5073674;28;20383;-69
2023/06/03 06:06:24;;;;;;;1.48;0.60;;;15.00;99.90;;;;;;5092780;28;20100;-70
2023/06/03 06:08:50;;;;;;;1.75;0.55;;;15.50;99.90;;;;;;5092118;28;20483;-70
2023/06/03 06:11:16;;;;;;;0.57;0.50;;;15.80;99.90;;;;;;5109622;28;20040;-71
2023/06/03 06:13:41;;;;;;;0.90;0.60;;;16.10;99.90;;;;;;5091959;28;20535;-70
2023/06/03 06:16:08;;;;;;;0.60;0.50;;;16.00;99.90;;;;;;5126708;27;20052;-70
2023/06/03 06:18:33;;;;;;;0.60;0.40;;;16.00;99.90;;;;;;5126265;27;20051;-70
2023/06/03 06:20:59;;;;;;;0.50;0.40;;;15.90;99.90;;;;;;5123804;27;20044;-70
2023/06/03 06:23:25;;;;;;;0.93;0.60;;;16.10;99.90;;;;;;5075322;28;20040;-70
2023/06/03 06:25:53;;;;;;;0.60;0.50;;;15.90;99.90;;;;;;5087947;28;20039;-70
2023/06/03 06:28:25;;;;;;;2.47;0.47;;;15.70;99.90;;;;;;5088207;28;20156;-70
2023/06/03 06:30:55;;;;;;;0.52;0.43;;;15.70;99.90;;;;;;5090618;28;20085;-70
2023/06/03 06:33:21;;;;;;;0.77;0.57;;;15.70;99.90;;;;;;5071155;28;20035;-70
2023/06/03 06:35:47;;;;;;;0.70;0.40;;;15.80;99.90;;;;;;5087807;28;20040;-70
2023/06/03 06:38:13;;;;;;;0.30;0.30;;;15.90;99.90;;;;;;5073821;28;20376;-70
2023/06/03 06:40:40;;;;;;;0.40;0.40;;;15.80;99.90;;;;;;5088150;28;20117;-70
2023/06/03 06:43:07;;;;;;;0.38;0.30;;;15.70;99.90;;;;;;5087882;28;20433;-70
2023/06/03 06:45:36;;;;;;;1.00;0.50;;;15.80;99.90;;;;;;5091873;28;20076;-70
2023/06/03 06:48:07;;;;;;;0.82;0.40;;;15.80;99.90;;;;;;5124233;27;20097;-70
2023/06/03 06:50:45;;;;;;;0.70;0.50;;;15.90;99.90;;;;;;5087866;28;20071;-70
2023/06/03 06:53:12;;;;;;;0.57;0.50;;;16.10;99.90;;;;;;5091895;28;20052;-70
2023/06/03 06:55:50;;;;;;;0.95;0.70;;;16.20;99.90;;;;;;5083786;28;20036;-70
2023/06/03 06:58:17;;;;;;;0.82;0.65;;;16.30;99.90;;;;;;5090253;28;20044;-70
2023/06/03 07:00:43;;;;;;;2.10;0.60;;;16.40;99.90;;;;;;5074709;28;20040;-70
2023/06/03 07:03:10;;;;;;;0.98;0.50;;;16.50;99.90;;;;;;5091539;28;20036;-70
2023/06/03 07:05:36;;;;;;;1.95;0.60;;;16.60;99.90;;;;;;5091658;28;20143;-70
2023/06/03 07:08:01;;;;;;;0.80;0.60;;;16.70;99.90;;;;;;5125765;27;20068;-70
2023/06/03 07:10:28;;;;;;;1.77;0.70;;;17.00;96.80;;;;;;5125538;27;20132;-70
2023/06/03 07:12:55;;;;;;;0.57;0.45;;;17.20;96.50;;;;;;5074747;28;20131;-70
2023/06/03 07:15:22;;;;;;;0.52;0.40;;;17.40;95.10;;;;;;5091152;28;20450;-70
2023/06/03 07:17:52;;;;;;;0.95;0.60;;;17.50;91.70;;;;;;5108729;28;20134;-69
2023/06/03 07:20:20;;;;;;;1.25;0.77;;;17.80;89.80;;;;;;5091041;28;20143;-69
2023/06/03 07:22:46;;;;;;;1.42;0.50;;;18.00;70.80;;;;;;5087373;28;20059;-70
2023/06/03 07:25:38;;;;;;;0.40;0.30;;;18.20;38.50;;;;;;5070154;28;20119;-69
2023/06/03 07:28:13;;;;;;;0.75;0.40;;;18.40;35.90;;;;;;5104593;28;20051;-70
2023/06/03 07:30:40;;;;;;;0.63;0.50;;;18.50;63.40;;;;;;5070219;28;20066;-70
2023/06/03 07:33:10;;;;;;;0.77;0.50;;;18.30;5.50;;;;;;5089527;28;20044;-70
2023/06/03 07:35:36;;;;;;;0.65;0.47;;;18.00;6.60;;;;;;5089265;28;20124;-70
2023/06/03 07:38:05;;;;;;;0.30;0.30;;;17.60;1.40;;;;;;5085009;28;20040;-70
2023/06/03 07:40:37;;;;;;;0.45;0.38;;;17.50;39.90;;;;;;5084130;28;20063;-70
2023/06/03 07:43:02;;;;;;;0.40;0.30;;;17.20;35.50;;;;;;5088659;28;20086;-70
2023/06/03 07:45:28;;;;;;;;;;;17.00;26.50;;;;;;5090328;28;20478;-70
2023/06/03 07:47:56;;;;;;;1.10;0.50;;;16.80;28.20;;;;;;5072053;28;20014;-70
2023/06/03 07:50:26;;;;;;;1.23;0.60;;;16.70;54.30;;;;;;5085743;28;20077;-70
2023/06/03 07:53:04;;;;;;;0.57;0.30;;;16.60;39.60;;;;;;5087648;28;20050;-70
2023/06/03 07:55:44;;;;;;;0.47;0.40;;;16.50;26.20;;;;;;5067974;28;20054;-70
2023/06/03 07:58:11;;;;;;;0.85;0.43;;;16.40;37.20;;;;;;5067324;28;20052;-70
2023/06/03 08:00:43;;;;;;;0.98;0.50;;;16.40;35.60;;;;;;5112894;27;20119;-70
2023/06/03 08:03:08;;;;;;;0.32;0.30;;;16.30;42.90;;;;;;5090878;28;20050;-70
2023/06/03 08:05:36;;;;;;;0.70;0.43;;;16.40;35.90;;;;;;5073473;28;20044;-70
2023/06/03 08:08:09;;;;;;;0.68;0.40;;;16.50;56.50;;;;;;5090971;28;20067;-70
2023/06/03 08:10:35;;;;;;;0.50;0.40;;;16.90;74.50;;;;;;5090130;28;20044;-70
2023/06/03 08:13:02;;;;;;;0.57;0.30;;;17.30;59.90;;;;;;5089532;28;20089;-70
2023/06/03 08:15:35;;;;;;;0.30;0.20;;;17.90;62.80;;;;;;5072426;28;20433;-70
2023/06/03 08:18:04;;;;;;;0.95;0.40;;;18.30;52.30;;;;;;5090266;28;20574;-70
2023/06/03 08:20:30;;;;;;;0.93;0.57;;;18.70;38.20;;;;;;5090176;28;20108;-70
2023/06/03 08:22:56;;;;;;;;;;;19.00;1.00;;;;;;5124878;27;20516;-70
2023/06/03 08:25:23;;;;;;;1.17;0.52;;;19.30;1.00;;;;;;5089814;28;19924;-71
2023/06/03 08:27:49;;;;;;;0.70;0.50;;;19.50;1.00;;;;;;5071461;28;20032;-72
2023/06/03 08:30:16;;;;;;;2.53;0.40;;;19.80;1.00;;;;;;5088102;28;20086;-73
2023/06/03 08:32:43;;;;;;;0.93;0.50;;;20.10;1.00;;;;;;5073146;28;20040;-72
2023/06/03 08:35:10;;;;;;;0.55;0.40;;;20.30;1.00;;;;;;5069330;28;20519;-76
2023/06/03 08:37:36;;;;;;;0.73;0.52;;;20.40;1.00;;;;;;5087714;28;20040;-71
2023/06/03 08:40:09;;;;;;;0.82;0.50;;;20.50;1.00;;;;;;5087129;28;20120;-72
2023/06/03 08:42:43;;;;;;;1.85;0.30;;;20.50;1.00;;;;;;5075949;28;20438;-72
2023/06/03 08:45:13;;;;;;;0.73;0.30;;;20.60;1.00;;;;;;5118612;27;20439;-72
2023/06/03 08:48:04;;;;;;;1.20;0.50;;;20.60;1.00;;;;;;5092860;28;20043;-72
2023/06/03 08:50:35;;;;;;;0.75;0.47;;;20.80;1.00;;;;;;5088108;28;20047;-73
2023/06/03 08:53:08;;;;;;;0.50;0.38;;;20.90;1.00;;;;;;5105495;28;20048;-72
2023/06/03 08:55:36;;;;;;;1.00;0.50;;;20.90;1.00;;;;;;5086346;28;20460;-72
2023/06/03 08:58:12;;;;;;;0.65;0.50;;;20.90;1.00;;;;;;5089827;28;20147;-72
2023/06/03 09:00:39;;;;;;;0.52;0.30;;;21.00;1.00;;;;;;5085949;28;20059;-72
2023/06/03 09:03:07;;;;;;;0.47;0.30;;;21.00;1.00;;;;;;5087988;28;20055;-73
2023/06/03 09:05:37;;;;;;;0.70;0.40;;;21.10;1.00;;;;;;5083368;28;20357;-72
2023/06/03 09:08:04;;;;;;;0.40;0.30;;;21.00;1.00;;;;;;5085515;28;20525;-72
2023/06/03 09:10:31;;;;;;;0.60;0.30;;;21.10;1.00;;;;;;5085840;28;20036;-72
2023/06/03 09:12:58;;;;;;;1.60;0.38;;;21.20;1.00;;;;;;5067933;28;20122;-73
2023/06/03 09:15:25;;;;;;;1.00;0.40;;;21.40;99.90;;;;;;5084783;28;20426;-73
2023/06/03 09:17:51;;;;;;;0.65;0.47;;;21.60;1.00;;;;;;5085741;28;20135;-72
2023/06/03 09:20:17;;;;;;;1.65;0.50;;;21.60;99.90;;;;;;5085745;28;20050;-72
2023/06/03 09:22:48;;;;;;;0.57;0.50;;;21.40;99.90;;;;;;5087538;28;20144;-71
2023/06/03 09:25:14;;;;;;;1.92;0.50;;;21.40;99.90;;;;;;5096085;28;20048;-72
2023/06/03 09:27:40;;;;;;;0.60;0.40;;;21.50;99.90;;;;;;5069863;28;20036;-73
2023/06/03 09:30:07;;;;;;;0.60;0.40;;;21.60;99.90;;;;;;5088660;28;20047;-72
2023/06/03 09:32:35;;;;;;;1.05;0.50;;;21.70;99.90;;;;;;5105088;28;20040;-73
2023/06/03 09:35:04;;;;;;;0.60;0.40;;;21.80;99.90;;;;;;5085892;28;20044;-72
2023/06/03 09:37:34;;;;;;;1.35;0.50;;;21.90;99.90;;;;;;5086038;28;20329;-72
2023/06/03 09:40:01;;;;;;;0.63;0.43;;;22.00;99.90;;;;;;5115382;27;20127;-73
2023/06/03 09:42:43;;;;;;;0.55;0.38;;;22.00;99.90;;;;;;5086307;28;20486;-72
2023/06/03 09:45:31;;;;;;;0.70;0.47;;;22.20;99.90;;;;;;5083483;28;20043;-73
2023/06/03 09:47:58;;;;;;;0.38;0.38;;;22.30;99.90;;;;;;5086407;28;20454;-73
2023/06/03 09:50:27;;;;;;;0.57;0.30;;;22.30;99.90;;;;;;5086788;28;20489;-73
2023/06/03 09:52:53;;;;;;;0.43;0.40;;;22.40;99.90;;;;;;5083643;28;20122;-72
2023/06/03 09:55:20;;;;;;;0.47;0.30;;;22.30;99.90;;;;;;5056582;28;20040;-71
2023/06/03 09:58:04;;;;;;;0.90;0.50;;;22.30;99.90;;;;;;5064124;28;20040;-72
2023/06/03 10:00:32;;;;;;;0.50;0.40;;;22.50;99.90;;;;;;5068926;28;20486;-72
2023/06/03 10:03:08;;;;;;;1.02;0.52;;;22.70;99.90;;;;;;5079346;28;20258;-71
2023/06/03 10:05:34;;;;;;;2.20;0.90;;;22.60;99.90;;;;;;5051768;28;20497;-72
2023/06/03 10:08:02;;;;;;;1.13;0.65;;;22.50;99.90;;;;;;5083581;28;20116;-72
2023/06/03 10:10:28;;;;;;;1.50;0.70;;;22.50;99.90;;;;;;5088829;28;20047;-72
2023/06/03 10:12:54;;;;;;;0.90;0.60;;;22.40;99.90;;;;;;5088677;28;20047;-72
2023/06/03 10:15:39;;;;;;;0.63;0.47;;;22.50;99.90;;;;;;5105598;28;20044;-72
2023/06/03 10:18:06;;;;;;;0.90;0.57;;;22.50;99.90;;;;;;5086877;28;20052;-72
2023/06/03 10:20:38;;;;;;;0.52;0.30;;;22.70;99.90;;;;;;5092709;28;20491;-72
2023/06/03 10:23:05;;;;;;;1.80;0.30;;;22.80;99.90;;;;;;5092194;28;20101;-72
2023/06/03 10:25:46;;;;;;;0.52;0.43;;;22.90;99.90;;;;;;5089597;28;20044;-72
2023/06/03 10:28:13;;;;;;;0.57;0.50;;;22.80;99.90;;;;;;5090018;28;20518;-73
2023/06/03 10:30:40;;;;;;;0.90;0.50;;;22.90;99.90;;;;;;5092354;28;20079;-73
2023/06/03 10:33:10;;;;;;;3.05;1.20;;;22.90;99.90;;;;;;5089139;28;20514;-73
2023/06/03 10:35:38;;;;;;;1.80;1.10;;;22.80;99.90;;;;;;5079384;28;20040;-72
2023/06/03 10:38:05;;;;;;;1.20;0.85;;;23.00;99.90;;;;;;5118884;27;20047;-72
2023/06/03 10:40:32;;;;;;;1.58;0.90;;;23.10;99.90;;;;;;5091372;28;20064;-72
2023/06/03 10:42:57;;;;;;;0.88;0.60;;;22.90;99.90;;;;;;5091768;28;20541;-72
2023/06/03 10:45:26;;;;;;;1.63;0.70;;;22.80;99.90;;;;;;5125750;27;20131;-72
2023/06/03 10:47:59;;;;;;;0.50;0.40;;;22.90;99.90;;;;;;5089156;28;20078;-71
2023/06/03 10:50:59;;;;;;;1.15;0.40;;;22.90;99.90;;;;;;5090587;28;20051;-71
2023/06/03 10:53:36;;;;;;;0.47;0.45;;;23.00;99.90;;;;;;5088890;28;20123;-72
2023/06/03 10:56:35;;;;;;;0.73;0.50;;;22.90;99.90;;;;;;5088913;28;20035;-73
2023/06/03 10:59:09;;;;;;;1.70;0.50;;;23.00;99.90;;;;;;5091228;28;20039;-71
2023/06/03 11:02:01;;;;;;;1.85;0.60;;;23.00;99.90;;;;;;5090123;28;20561;-72
2023/06/03 11:04:32;;;;;;;1.45;0.70;;;22.90;99.90;;;;;;5123878;27;20047;-72
2023/06/03 11:06:58;;;;;;;0.57;0.40;;;23.00;99.90;;;;;;5124325;27;20045;-72
2023/06/03 11:09:37;;;;;;;0.85;0.38;;;23.10;99.90;;;;;;5089604;28;20086;-72
2023/06/03 11:12:13;;;;;;;0.63;0.50;;;23.10;99.90;;;;;;5088925;28;20066;-72
2023/06/03 11:14:50;;;;;;;1.40;0.65;;;23.00;99.90;;;;;;5091173;28;20083;-72
2023/06/03 11:17:18;;;;;;;1.67;0.52;;;23.20;99.90;;;;;;5077222;28;20055;-73
2023/06/03 11:19:44;;;;;;;1.08;0.50;;;23.20;99.90;;;;;;5105065;28;20495;-71
2023/06/03 11:22:11;;;;;;;1.17;0.73;;;23.30;99.90;;;;;;5076206;28;20042;-72
2023/06/03 11:24:40;;;;;;;1.10;0.40;;;23.20;99.90;;;;;;5090657;28;20532;-72
2023/06/03 11:27:14;;;;;;;1.33;0.60;;;23.10;99.90;;;;;;5090219;28;20482;-72
2023/06/03 11:29:46;;;;;;;1.15;0.60;;;23.20;99.90;;;;;;5088192;28;20086;-72
2023/06/03 11:32:23;;;;;;;0.80;0.50;;;23.10;99.90;;;;;;5088100;28;20043;-72
2023/06/03 11:34:50;;;;;;;1.10;0.50;;;23.30;99.90;;;;;;5101142;28;20093;-72
2023/06/03 11:37:17;;;;;;;0.80;0.50;;;23.20;99.90;;;;;;5089577;28;20046;-72
2023/06/03 11:40:05;;;;;;;0.88;0.60;;;23.20;99.90;;;;;;5107379;28;20052;-72
2023/06/03 11:42:41;;;;;;;1.00;0.57;;;23.20;99.90;;;;;;5089695;28;20085;-72
2023/06/03 11:45:24;;;;;;;0.30;0.30;;;23.30;99.90;;;;;;5124466;27;20051;-72
2023/06/03 11:47:50;;;;;;;0.85;0.47;;;23.50;99.90;;;;;;5091815;28;20044;-72
2023/06/03 11:50:16;;;;;;;1.08;0.60;;;23.60;99.90;;;;;;5108008;28;20097;-72
2023/06/03 11:52:42;;;;;;;0.52;0.30;;;23.60;99.90;;;;;;5119269;27;20119;-72
2023/06/03 11:55:08;;;;;;;0.40;0.40;;;23.60;99.90;;;;;;5124843;27;20081;-72
2023/06/03 11:57:34;;;;;;;1.00;0.52;;;23.80;99.90;;;;;;5124977;27;20424;-72
2023/06/03 12:00:07;;;;;;;0.65;0.50;;;23.80;99.90;;;;;;5123919;27;20431;-72
2023/06/03 12:02:46;;;;;;;1.08;0.60;;;23.90;99.90;;;;;;5089577;28;20044;-72
2023/06/03 12:05:15;;;;;;;0.57;0.40;;;24.10;99.90;;;;;;5089818;28;20089;-72
2023/06/03 12:07:44;;;;;;;0.85;0.50;;;24.20;99.90;;;;;;5090650;28;20063;-72
2023/06/03 12:10:11;;;;;;;0.77;0.43;;;24.10;99.90;;;;;;5123858;27;20070;-72
2023/06/03 12:12:52;;;;;;;0.68;0.50;;;24.00;99.90;;;;;;5072232;28;20063;-72
2023/06/03 12:15:18;;;;;;;0.50;0.43;;;23.90;99.90;;;;;;5090018;28;20053;-71
2023/06/03 12:17:44;;;;;;;0.63;0.50;;;24.00;99.90;;;;;;5091036;28;20044;-72
2023/06/03 12:20:25;;;;;;;1.02;0.43;;;24.10;99.90;;;;;;5085780;28;20119;-73
2023/06/03 12:23:05;;;;;;;1.15;0.60;;;24.10;99.90;;;;;;5070062;28;20064;-78
2023/06/03 12:25:32;;;;;;;0.52;0.40;;;24.00;99.90;;;;;;5093876;28;20336;-73
2023/06/03 12:27:59;;;;;;;0.82;0.50;;;23.90;99.90;;;;;;5082740;28;20028;-73
2023/06/03 12:30:33;;;;;;;1.52;0.60;;;23.90;99.90;;;;;;5088766;28;20055;-73
2023/06/03 12:32:59;;;;;;;2.22;0.60;;;23.90;99.90;;;;;;5120445;27;20097;-73
2023/06/03 12:35:26;;;;;;;1.63;0.70;;;24.00;99.90;;;;;;5089336;28;20051;-73
2023/06/03 12:38:08;;;;;;;3.60;0.77;;;23.80;99.90;;;;;;5090077;28;20046;-74
2023/06/03 12:40:35;;;;;;;2.75;0.70;;;23.70;99.90;;;;;;5086621;28;20051;-72
2023/06/03 12:43:04;;;;;;;0.57;0.50;;;23.70;99.90;;;;;;5089854;28;20079;-72
2023/06/03 12:45:29;;;;;;;0.85;0.60;;;24.00;99.90;;;;;;5089628;28;20757;-72
2023/06/03 12:47:55;;;;;;;1.23;0.60;;;23.90;99.90;;;;;;5090230;28;20055;-74
2023/06/03 12:50:23;;;;;;;0.82;0.40;;;23.90;99.90;;;;;;5085071;28;20462;-72
2023/06/03 12:52:49;;;;;;;0.68;0.50;;;23.80;99.90;;;;;;5089280;28;20083;-71
2023/06/03 12:55:17;;;;;;;1.63;0.68;;;24.00;99.90;;;;;;5088359;28;20071;-70